createdAt,value
2018-08-30T00:03:00.272Z,12.57
2018-08-30T00:06:04.437Z,12.97
2018-08-30T00:09:08.687Z,12.73
2018-08-30T00:12:12.829Z,12.57
2018-08-30T00:15:16.958Z,12.53
2018-08-30T00:18:21.119Z,11.40
2018-08-30T00:21:25.255Z,12.30
2018-08-30T00:24:29.376Z,12.70
2018-08-30T00:27:33.627Z,13.60
2018-08-30T00:30:37.776Z,13.57
2018-08-30T00:33:41.882Z,13.07
2018-08-30T00:36:46.010Z,13.33
2018-08-30T00:39:50.361Z,14.07
2018-08-30T00:42:54.535Z,14.07
2018-08-30T00:45:58.655Z,15.77
2018-08-30T00:49:02.865Z,13.97
2018-08-30T00:52:06.996Z,13.83
2018-08-30T00:55:11.582Z,15.57
2018-08-30T00:58:15.698Z,13.77
2018-08-30T01:01:19.781Z,27.00
2018-08-30T01:04:23.927Z,14.57
2018-08-30T01:07:28.042Z,17.23
2018-08-30T01:10:32.153Z,13.90
2018-08-30T01:13:36.342Z,16.17
2018-08-30T01:16:40.485Z,14.80
2018-08-30T01:19:44.654Z,14.57
2018-08-30T01:22:49.108Z,14.03
2018-08-30T01:25:53.270Z,15.03
2018-08-30T01:28:57.457Z,16.63
2018-08-30T01:32:02.625Z,14.27
2018-08-30T01:35:06.816Z,15.00
2018-08-30T01:38:10.955Z,14.27
2018-08-30T01:41:15.342Z,13.93
2018-08-30T01:44:19.523Z,14.00
2018-08-30T01:47:23.868Z,14.20
2018-08-30T01:50:28.063Z,15.27
2018-08-30T01:53:32.311Z,13.33
2018-08-30T01:56:36.447Z,14.40
2018-08-30T01:59:40.583Z,14.03
2018-08-30T02:02:44.716Z,15.33
2018-08-30T02:05:49.149Z,14.30
2018-08-30T02:08:53.251Z,15.00
2018-08-30T02:11:57.414Z,14.07
2018-08-30T02:15:01.561Z,12.87
2018-08-30T02:18:05.685Z,13.10
2018-08-30T02:21:09.827Z,14.13
2018-08-30T02:24:13.938Z,12.33
2018-08-30T02:27:18.200Z,12.37
2018-08-30T02:30:22.456Z,13.03
2018-08-30T02:33:26.663Z,11.07
2018-08-30T02:36:30.856Z,11.87
2018-08-30T02:39:34.952Z,12.53
2018-08-30T02:42:39.225Z,11.40
2018-08-30T02:45:43.338Z,12.13
2018-08-30T02:48:47.624Z,12.30
2018-08-30T02:51:51.777Z,11.80
2018-08-30T02:54:55.969Z,12.13
2018-08-30T02:58:00.130Z,11.97
2018-08-30T03:01:04.330Z,11.70
2018-08-30T03:04:08.567Z,11.27
2018-08-30T03:07:12.926Z,12.47
2018-08-30T03:10:17.059Z,12.63
2018-08-30T03:13:21.200Z,13.03
2018-08-30T03:16:25.416Z,14.30
2018-08-30T03:19:35.357Z,13.97
2018-08-30T03:22:40.602Z,14.63
2018-08-30T03:25:44.797Z,14.43
2018-08-30T03:28:48.884Z,16.47
2018-08-30T03:31:53.098Z,17.53
2018-08-30T03:34:57.644Z,20.10
2018-08-30T03:38:01.791Z,19.50
2018-08-30T03:41:06.127Z,20.07
2018-08-30T03:44:10.266Z,21.47
2018-08-30T03:47:14.464Z,24.03
2018-08-30T03:50:18.721Z,24.07
2018-08-30T03:53:22.986Z,26.40
2018-08-30T03:56:27.137Z,24.37
2018-08-30T03:59:31.817Z,26.10
2018-08-30T04:02:36.056Z,24.77
2018-08-30T04:05:40.196Z,29.40
2018-08-30T04:08:44.431Z,28.67
2018-08-30T04:11:48.548Z,28.80
2018-08-30T04:14:52.753Z,30.30
2018-08-30T04:17:56.920Z,29.77
2018-08-30T04:21:01.228Z,28.50
2018-08-30T04:24:06.852Z,30.03
2018-08-30T04:27:11.672Z,30.40
2018-08-30T04:30:15.782Z,28.27
2018-08-30T04:33:19.888Z,29.90
2018-08-30T04:36:24.387Z,29.37
2018-08-30T04:39:28.598Z,26.27
2018-08-30T04:42:32.869Z,25.63
2018-08-30T04:45:37.080Z,27.73
2018-08-30T04:48:41.199Z,26.33
2018-08-30T04:51:45.348Z,25.87
2018-08-30T04:54:49.466Z,26.33
2018-08-30T04:57:53.581Z,27.27
2018-08-30T05:00:58.337Z,27.03
2018-08-30T05:04:02.820Z,23.63
2018-08-30T05:07:06.989Z,26.83
2018-08-30T05:10:11.265Z,24.40
2018-08-30T05:13:15.429Z,23.93
2018-08-30T05:16:19.635Z,21.33
2018-08-30T05:19:23.778Z,21.70
2018-08-30T05:22:27.935Z,21.13
2018-08-30T05:25:32.098Z,18.80
2018-08-30T05:28:36.359Z,13.50
2018-08-30T05:31:40.592Z,10.47
2018-08-30T05:34:45.163Z,8.20
2018-08-30T05:37:49.320Z,6.33
2018-08-30T05:40:53.700Z,4.77
2018-08-30T05:43:57.918Z,4.47
2018-08-30T05:47:02.149Z,3.90
2018-08-30T05:50:07.010Z,3.20
2018-08-30T05:53:11.180Z,2.50
2018-08-30T05:56:15.373Z,2.60
2018-08-30T05:59:19.530Z,2.70
2018-08-30T06:02:23.823Z,2.30
2018-08-30T06:05:28.010Z,2.50
2018-08-30T06:08:32.149Z,2.13
2018-08-30T06:11:36.401Z,2.77
2018-08-30T06:14:40.615Z,2.10
2018-08-30T06:17:44.791Z,2.13
2018-08-30T06:20:48.914Z,2.17
2018-08-30T06:23:53.137Z,1.90
2018-08-30T06:26:57.572Z,2.30
2018-08-30T06:30:01.788Z,1.60
2018-08-30T06:33:05.966Z,1.97
2018-08-30T06:36:10.084Z,2.00
2018-08-30T06:39:14.244Z,1.77
2018-08-30T06:42:18.416Z,1.87
2018-08-30T06:45:22.668Z,2.00
2018-08-30T06:48:26.872Z,2.93
2018-08-30T06:51:30.939Z,1.40
2018-08-30T06:54:35.291Z,1.37
2018-08-30T06:57:39.644Z,3.40
2018-08-30T07:00:43.787Z,1.67
2018-08-30T07:03:47.981Z,1.93
2018-08-30T07:06:52.412Z,1.37
2018-08-30T07:09:56.655Z,1.30
2018-08-30T07:13:00.757Z,1.40
2018-08-30T07:16:04.928Z,1.33
2018-08-30T07:19:09.090Z,1.20
2018-08-30T07:22:13.287Z,1.10
2018-08-30T07:25:17.681Z,1.40
2018-08-30T07:28:21.933Z,2.07
2018-08-30T07:31:26.272Z,1.50
2018-08-30T07:34:31.809Z,1.60
2018-08-30T07:37:36.228Z,1.90
2018-08-30T07:40:40.359Z,1.50
2018-08-30T07:43:44.514Z,1.73
2018-08-30T07:46:48.761Z,1.73
2018-08-30T07:49:52.987Z,2.60
2018-08-30T07:52:57.087Z,1.40
2018-08-30T07:56:01.250Z,1.60
2018-08-30T07:59:06.089Z,1.80
2018-08-30T08:02:10.250Z,2.03
2018-08-30T08:05:14.424Z,1.30
2018-08-30T08:08:18.536Z,1.60
2018-08-30T08:11:22.682Z,1.60
2018-08-30T08:14:26.803Z,1.57
2018-08-30T08:17:31.054Z,1.67
2018-08-30T08:20:35.615Z,2.40
2018-08-30T08:23:39.722Z,1.67
2018-08-30T08:26:43.876Z,1.40
2018-08-30T08:29:47.998Z,1.77
2018-08-30T08:32:52.286Z,1.93
2018-08-30T08:35:56.643Z,2.10
2018-08-30T08:39:00.858Z,2.23
2018-08-30T08:42:05.081Z,1.80
2018-08-30T08:45:09.333Z,2.00
2018-08-30T08:48:13.620Z,1.93
2018-08-30T08:51:17.886Z,2.40
2018-08-30T08:54:21.983Z,2.90
2018-08-30T08:57:26.204Z,2.73
2018-08-30T09:00:30.447Z,2.83
2018-08-30T09:03:34.812Z,3.23
2018-08-30T09:06:38.961Z,3.33
2018-08-30T09:09:43.135Z,3.37
2018-08-30T09:12:47.668Z,3.73
2018-08-30T09:15:51.877Z,4.00
2018-08-30T09:18:56.075Z,3.70
2018-08-30T09:22:00.299Z,4.33
2018-08-30T09:25:04.509Z,4.57
2018-08-30T09:28:09.087Z,4.40
2018-08-30T09:31:13.371Z,3.77
2018-08-30T09:34:17.533Z,6.83
2018-08-30T09:37:22.712Z,5.83
2018-08-30T09:40:26.900Z,5.77
2018-08-30T09:43:31.322Z,5.80
2018-08-30T09:46:35.775Z,5.57
2018-08-30T09:49:40.023Z,6.03
2018-08-30T09:52:44.126Z,6.37
2018-08-30T09:55:48.363Z,6.13
2018-08-30T09:58:52.374Z,7.10
2018-08-30T10:02:01.846Z,7.20
2018-08-30T10:05:06.052Z,8.17
2018-08-30T10:08:10.250Z,8.37
2018-08-30T10:11:14.516Z,8.93
2018-08-30T10:14:18.707Z,8.93
2018-08-30T10:17:22.886Z,8.53
2018-08-30T10:20:27.101Z,9.07
2018-08-30T10:23:31.250Z,8.80
2018-08-30T10:26:35.599Z,9.33
2018-08-30T10:29:39.765Z,9.00
2018-08-30T10:32:43.976Z,10.37
2018-08-30T10:35:48.199Z,9.50
2018-08-30T10:38:52.356Z,9.97
2018-08-30T10:41:56.526Z,9.17
2018-08-30T10:45:00.721Z,9.33
2018-08-30T10:48:04.959Z,8.90
2018-08-30T10:51:09.145Z,10.10
2018-08-30T10:54:13.285Z,8.90
2018-08-30T10:57:17.497Z,8.80
2018-08-30T11:00:21.673Z,9.57
2018-08-30T11:03:25.971Z,9.23
2018-08-30T11:06:30.298Z,8.97
2018-08-30T11:09:35.158Z,9.20
2018-08-30T11:12:39.363Z,8.67
2018-08-30T11:15:43.558Z,8.53
2018-08-30T11:18:47.720Z,9.27
2018-08-30T11:21:51.940Z,8.80
2018-08-30T11:24:56.109Z,9.20
2018-08-30T11:28:00.262Z,7.60
2018-08-30T11:31:04.451Z,8.50
2018-08-30T11:34:08.677Z,8.10
2018-08-30T11:37:12.811Z,7.80
2018-08-30T11:40:16.988Z,8.53
2018-08-30T11:43:21.174Z,7.93
2018-08-30T11:46:25.271Z,7.97
2018-08-30T11:49:29.443Z,7.70
2018-08-30T11:52:33.952Z,7.03
2018-08-30T11:55:38.068Z,7.80
2018-08-30T11:58:43.086Z,7.77
2018-08-30T12:01:47.178Z,7.60
2018-08-30T12:04:52.419Z,7.20
2018-08-30T12:07:58.138Z,8.57
2018-08-30T12:11:02.535Z,8.33
2018-08-30T12:14:06.602Z,8.03
2018-08-30T12:17:10.835Z,8.17
2018-08-30T12:20:15.068Z,8.20
2018-08-30T12:23:19.277Z,7.30
2018-08-30T12:26:23.615Z,7.47
2018-08-30T12:29:27.916Z,7.03
2018-08-30T12:32:32.120Z,6.07
2018-08-30T12:35:36.442Z,6.63
2018-08-30T12:38:40.761Z,6.43
2018-08-30T12:41:44.919Z,5.80
2018-08-30T12:44:49.174Z,5.87
2018-08-30T12:47:53.763Z,6.07
2018-08-30T12:50:57.993Z,5.80
2018-08-30T12:54:02.239Z,5.80
2018-08-30T12:57:07.247Z,5.77
2018-08-30T13:00:11.388Z,5.37
2018-08-30T13:03:15.589Z,5.97
2018-08-30T13:06:19.727Z,5.83
2018-08-30T13:09:25.819Z,5.70
2018-08-30T13:12:30.373Z,5.63
2018-08-30T13:15:34.631Z,5.23
2018-08-30T13:18:38.728Z,5.50
2018-08-30T13:21:43.057Z,5.63
2018-08-30T13:24:47.164Z,5.93
2018-08-30T13:27:51.227Z,5.83
2018-08-30T13:30:55.587Z,5.30
2018-08-30T13:34:00.111Z,5.93
2018-08-30T13:37:04.238Z,5.37
2018-08-30T13:40:08.613Z,5.47
2018-08-30T13:43:12.729Z,5.93
2018-08-30T13:46:16.619Z,5.73
2018-08-30T13:49:20.672Z,5.87
2018-08-30T13:52:24.950Z,6.03
2018-08-30T13:55:29.249Z,5.70
2018-08-30T13:58:33.502Z,5.57
2018-08-30T14:01:37.699Z,5.93
2018-08-30T14:04:41.669Z,5.30
2018-08-30T14:07:45.749Z,5.87
2018-08-30T14:10:50.007Z,6.33
2018-08-30T14:13:54.002Z,6.10
2018-08-30T14:16:58.054Z,5.50
2018-08-30T14:20:02.116Z,5.23
2018-08-30T14:23:06.261Z,5.40
2018-08-30T14:26:11.282Z,4.90
2018-08-30T14:29:15.541Z,4.73
2018-08-30T14:32:19.686Z,4.67
2018-08-30T14:35:24.265Z,4.60
2018-08-30T14:38:28.785Z,4.67
2018-08-30T14:41:33.121Z,4.20
2018-08-30T14:47:55.133Z,4.13
2018-08-30T14:50:59.235Z,4.30
2018-08-30T14:54:03.527Z,3.40
2018-08-30T14:57:08.165Z,4.10
2018-08-30T15:00:12.456Z,4.50
2018-08-30T15:03:16.637Z,4.17
2018-08-30T15:06:20.794Z,4.23
2018-08-30T15:09:24.987Z,3.60
2018-08-30T15:12:29.106Z,3.70
2018-08-30T15:15:33.405Z,4.60
2018-08-30T15:18:37.838Z,4.23
2018-08-30T15:21:41.980Z,3.47
2018-08-30T15:24:46.236Z,3.77
2018-08-30T15:27:50.472Z,3.90
2018-08-30T15:30:54.698Z,4.27
2018-08-30T15:33:59.043Z,3.53
2018-08-30T15:37:03.164Z,4.30
2018-08-30T15:40:07.368Z,3.70
2018-08-30T15:43:11.521Z,4.10
2018-08-30T15:46:15.821Z,3.63
2018-08-30T15:49:20.025Z,3.33
2018-08-30T15:52:24.181Z,3.77
2018-08-30T15:55:28.375Z,3.53
2018-08-30T15:58:32.518Z,3.80
2018-08-30T16:01:36.752Z,3.07
2018-08-30T16:04:40.815Z,3.70
2018-08-30T16:07:44.954Z,3.90
2018-08-30T16:10:50.148Z,3.63
2018-08-30T16:13:54.446Z,3.63
2018-08-30T16:16:58.932Z,3.40
2018-08-30T16:20:03.257Z,3.10
2018-08-30T16:23:28.684Z,3.47
2018-08-30T16:26:32.938Z,3.70
2018-08-30T16:29:37.209Z,3.50
2018-08-30T16:32:41.600Z,3.07
2018-08-30T16:35:46.017Z,3.33
2018-08-30T16:38:50.203Z,3.90
2018-08-30T16:41:54.346Z,3.60
2018-08-30T16:44:59.335Z,3.47
2018-08-30T16:48:03.855Z,3.30
2018-08-30T16:51:08.325Z,3.70
2018-08-30T16:54:12.615Z,2.87
2018-08-30T16:57:16.931Z,3.70
2018-08-30T17:00:21.198Z,3.30
2018-08-30T17:03:25.392Z,3.57
2018-08-30T17:06:29.652Z,3.53
2018-08-30T17:09:33.981Z,3.83
2018-08-30T17:12:38.479Z,3.40
2018-08-30T17:15:42.707Z,3.47
2018-08-30T17:18:49.227Z,3.93
2018-08-30T17:21:53.540Z,3.50
2018-08-30T17:24:57.752Z,3.43
2018-08-30T17:28:01.884Z,3.50
2018-08-30T17:31:06.405Z,3.00
2018-08-30T17:34:10.765Z,3.10
2018-08-30T17:37:15.120Z,3.50
2018-08-30T17:40:19.251Z,3.40
2018-08-30T17:43:23.422Z,3.17
2018-08-30T17:46:27.667Z,3.47
2018-08-30T17:49:31.834Z,3.50
2018-08-30T17:52:36.072Z,2.87
2018-08-30T17:55:40.299Z,2.77
2018-08-30T17:58:44.573Z,3.17
2018-08-30T18:01:48.847Z,3.13
2018-08-30T18:04:53.078Z,3.30
2018-08-30T18:07:57.469Z,3.43
2018-08-30T18:11:01.519Z,3.40
2018-08-30T18:14:06.024Z,3.30
2018-08-30T18:17:10.127Z,4.23
2018-08-30T18:20:14.870Z,2.97
2018-08-30T18:23:19.074Z,3.20
2018-08-30T18:26:23.303Z,3.93
2018-08-30T18:29:27.560Z,3.60
2018-08-30T18:32:31.778Z,3.53
2018-08-30T18:35:36.146Z,3.20
2018-08-30T18:38:40.427Z,3.60
2018-08-30T18:41:44.688Z,3.63
2018-08-30T18:44:48.860Z,3.47
2018-08-30T18:47:53.025Z,2.93
2018-08-30T18:50:57.365Z,3.20
2018-08-30T18:54:01.549Z,4.33
2018-08-30T18:57:06.766Z,3.20
2018-08-30T19:00:11.006Z,3.57
2018-08-30T19:03:15.225Z,4.27
2018-08-30T19:06:19.570Z,5.00
2018-08-30T19:09:23.810Z,3.60
2018-08-30T19:12:28.058Z,3.97
2018-08-30T19:15:37.520Z,3.60
2018-08-30T19:18:47.122Z,3.77
2018-08-30T19:21:51.503Z,3.63
2018-08-30T19:25:00.993Z,3.50
2018-08-30T19:28:05.283Z,3.87
2018-08-30T19:31:09.502Z,3.70
2018-08-30T19:34:13.793Z,3.90
2018-08-30T19:37:17.876Z,4.43
2018-08-30T19:40:27.349Z,4.60
2018-08-30T19:43:31.523Z,4.00
2018-08-30T19:46:35.979Z,4.03
2018-08-30T19:49:40.155Z,4.00
2018-08-30T19:52:44.661Z,4.80
2018-08-30T19:55:48.819Z,4.07
2018-08-30T19:58:53.017Z,3.90
2018-08-30T20:01:57.178Z,3.83
2018-08-30T20:05:01.645Z,4.27
2018-08-30T20:08:06.223Z,3.77
2018-08-30T20:11:10.399Z,3.77
2018-08-30T20:14:14.504Z,3.43
2018-08-30T20:17:19.451Z,3.93
2018-08-30T20:20:23.742Z,4.30
2018-08-30T20:23:27.931Z,4.17
2018-08-30T20:26:32.110Z,3.87
2018-08-30T20:29:37.936Z,4.37
2018-08-30T20:32:42.270Z,3.83
2018-08-30T20:35:46.410Z,4.00
2018-08-30T20:38:51.014Z,4.53
2018-08-30T20:41:55.296Z,4.20
2018-08-30T20:44:59.425Z,4.50
2018-08-30T20:48:03.913Z,3.80
2018-08-30T20:51:08.053Z,4.13
2018-08-30T20:54:12.429Z,3.97
2018-08-30T20:57:16.566Z,4.47
2018-08-30T21:00:20.796Z,4.03
2018-08-30T21:03:24.817Z,3.67
2018-08-30T21:06:28.990Z,3.90
2018-08-30T21:09:33.141Z,4.17
2018-08-30T21:12:38.320Z,4.20
2018-08-30T21:15:42.490Z,4.07
2018-08-30T21:18:46.620Z,4.03
2018-08-30T21:21:50.750Z,4.27
2018-08-30T21:24:54.847Z,4.43
2018-08-30T21:27:59.109Z,4.50
2018-08-30T21:31:03.453Z,4.20
2018-08-30T21:34:07.567Z,4.20
2018-08-30T21:37:11.962Z,4.10
2018-08-30T21:40:16.208Z,3.60
2018-08-30T21:43:20.424Z,4.33
2018-08-30T21:46:24.599Z,3.90
2018-08-30T21:49:28.797Z,3.60
2018-08-30T21:52:32.949Z,3.60
2018-08-30T21:55:37.129Z,3.40
2018-08-30T21:58:41.296Z,3.60
2018-08-30T22:01:45.486Z,3.57
2018-08-30T22:04:49.663Z,3.57
2018-08-30T22:07:53.831Z,3.00
2018-08-30T22:10:58.033Z,3.10
2018-08-30T22:14:02.211Z,3.40
2018-08-30T22:17:07.459Z,3.47
2018-08-30T22:20:11.579Z,3.70
2018-08-30T22:23:15.780Z,3.57
2018-08-30T22:26:19.971Z,4.60
2018-08-30T22:29:24.159Z,4.60
2018-08-30T22:32:28.316Z,4.30
2018-08-30T22:35:32.634Z,4.27
2018-08-30T22:38:36.796Z,4.10
2018-08-30T22:41:41.009Z,4.20
2018-08-30T22:44:45.269Z,3.63
2018-08-30T22:47:49.397Z,3.80
2018-08-30T22:50:53.609Z,3.70
2018-08-30T22:53:57.734Z,3.77
2018-08-30T22:57:01.910Z,4.03
2018-08-30T23:00:06.100Z,4.40
2018-08-30T23:03:10.393Z,3.80
2018-08-30T23:06:14.555Z,3.63
2018-08-30T23:09:18.692Z,3.70
2018-08-30T23:12:22.813Z,3.43
2018-08-30T23:15:26.953Z,3.07
2018-08-30T23:18:31.075Z,3.27
2018-08-30T23:21:35.479Z,2.70
2018-08-30T23:24:39.633Z,2.77
2018-08-30T23:27:43.759Z,2.60
2018-08-30T23:30:47.927Z,2.90
2018-08-30T23:33:52.579Z,2.57
2018-08-30T23:36:56.715Z,3.50
2018-08-30T23:40:00.879Z,3.60
2018-08-30T23:43:05.086Z,3.23
2018-08-30T23:46:09.267Z,3.43
2018-08-30T23:49:13.397Z,3.80
2018-08-30T23:52:17.566Z,3.77
2018-08-30T23:55:21.710Z,3.03
2018-08-30T23:58:37.020Z,2.90
